ELY777 LLBG-KSEA
Flight info
| Callsign | ELY777 |
|---|---|
| Flight time | N/A |
| Altitude | 34000 |
| Route | SUVAS N128 TEZAK L324 SAFTA DCT TOMBI UM855 AYT UQ23 OSVEL UL619 MAKOL L619 BALIK DCT KARIL DCT KEKED DCT KELEL DCT VAGON DCT SUBIX DCT BERIM/N0478F360 DCT TUSKA DCT PETIL DCT REKNA DCT BALIX/M084F360 DCT 61N020W 62N030W 62N040W 62N050W/M084F380 DCT PIDSO/N0483F380 DCT TUNNI DCT 60N080W 59N090W/N0493F400 56N100W 52N110W DCT HAYDN DCT YXC GLASR3 |
| Aircraft | B772/H-SDE2E3FGHIJ5LORVWXY/LB1D1 |
Departure
| Time | 2026-05-04 16:26 |
|---|---|
| Airport | Ben Gurion International Airport (LLBG) |
Arrival
| Time | N/A |
|---|---|
| Airport | Seattle–Tacoma International Airport (KSEA) |
| Time | Latitude | Longitude | Altitude | Speed | Heading |
|---|---|---|---|---|---|
| 2026-05-04 15:59 | 32.00636 | 34.87441 | 124 ft | 0 kts | 221° |
| 2026-05-04 16:13 | 32.00667 | 34.87473 | 119 ft | 4 kts | 209° |
| 2026-05-04 16:13 | 32.00709 | 34.87463 | 119 ft | 4 kts | 124° |
| 2026-05-04 16:14 | 32.00737 | 34.87409 | 119 ft | 4 kts | 121° |
| 2026-05-04 16:14 | 32.00756 | 34.87356 | 120 ft | 4 kts | 92° |
| 2026-05-04 16:15 | 32.00742 | 34.87268 | 119 ft | 4 kts | 76° |
| 2026-05-04 16:16 | 32.00729 | 34.87207 | 119 ft | 3 kts | 76° |
| 2026-05-04 16:16 | 32.00728 | 34.87203 | 119 ft | 0 kts | 76° |
| 2026-05-04 16:19 | 32.00784 | 34.87332 | 122 ft | 14 kts | 40° |
| 2026-05-04 16:20 | 32.00708 | 34.87627 | 119 ft | 15 kts | 121° |
| 2026-05-04 16:20 | 32.00602 | 34.87830 | 120 ft | 15 kts | 121° |
| 2026-05-04 16:21 | 32.00909 | 34.88155 | 120 ft | 24 kts | 32° |
| 2026-05-04 16:22 | 32.01199 | 34.88361 | 120 ft | 24 kts | 31° |
| 2026-05-04 16:22 | 32.01493 | 34.88832 | 121 ft | 24 kts | 76° |
| 2026-05-04 16:23 | 32.01585 | 34.89424 | 123 ft | 24 kts | 81° |
| 2026-05-04 16:24 | 32.01826 | 34.89608 | 120 ft | 0 kts | 260° |
| 2026-05-04 16:25 | 32.01743 | 34.89042 | 121 ft | 90 kts | 259° |
| 2026-05-04 16:26 | 32.00991 | 34.84361 | 1174 ft | 182 kts | 257° |
| 2026-05-04 16:26 | 32.00018 | 34.79704 | 2015 ft | 216 kts | 257° |
| 2026-05-04 16:27 | 31.99260 | 34.76116 | 2653 ft | 231 kts | 259° |
| 2026-05-04 16:28 | 32.00195 | 34.70523 | 3872 ft | 233 kts | 284° |
| 2026-05-04 16:28 | 32.01522 | 34.64875 | 5243 ft | 239 kts | 283° |
| 2026-05-04 16:29 | 32.03349 | 34.57133 | 6918 ft | 249 kts | 283° |
| 2026-05-04 16:30 | 32.04754 | 34.51187 | 8082 ft | 254 kts | 283° |
| 2026-05-04 16:31 | 32.05704 | 34.47164 | 8900 ft | 256 kts | 283° |
| 2026-05-04 16:31 | 32.07143 | 34.41060 | 10085 ft | 259 kts | 283° |
| 2026-05-04 16:32 | 32.08686 | 34.34486 | 10487 ft | 298 kts | 283° |
| 2026-05-04 16:33 | 32.09849 | 34.29526 | 10754 ft | 329 kts | 283° |